Terminal Aerodrome Forecast
Issued by NWS Houston/Galveston TX

Current Version | Previous Version | Text Only | Print | Product List | Glossary On
Versions: 1 2 3 4 5 6 7 8 9 10 11 12 13 14 15 16 17 18 19 20 21 22 23 24 25 26 27 28 29 30 31 32 33 34 35 36 37 38 39 40 41 42 43 44 45 46 47 48 49 50
000
FTUS44 KHGX 190520
TAFHOU
TAF
KHOU 190520Z 1906/2006 VRB02KT P6SM SCT010 BKN150 BKN250
      TEMPO 1906/1910 BKN007
     FM191000 VRB03KT P6SM VCSH SCT010 BKN250
     FM191500 12006KT P6SM VCSH FEW007 SCT020 BKN035
     FM192100 12009KT P6SM SCT025 BKN060=

USA.gov is the U.S. government's official web portal to all federal, state and local government web resources and services.